createdAt,value
2023-11-09T00:00:11.339Z,12.43
2023-11-09T00:02:59.216Z,13.12
2023-11-09T00:05:27.173Z,12.07
2023-11-09T00:07:55.084Z,11.17
2023-11-09T00:10:22.926Z,10.54
2023-11-09T00:12:52.398Z,10.66
2023-11-09T00:15:26.076Z,12.33
2023-11-09T00:17:55.095Z,13.12
2023-11-09T00:20:23.208Z,12.11
2023-11-09T00:22:52.584Z,11.18
2023-11-09T00:25:20.569Z,10.53
2023-11-09T00:27:48.371Z,10.59
2023-11-09T00:30:16.243Z,12.21
2023-11-09T00:32:44.076Z,12.99
2023-11-09T00:35:13.425Z,12.02
2023-11-09T00:37:42.164Z,11.09
2023-11-09T00:40:12.059Z,10.44
2023-11-09T00:42:40.383Z,10.53
2023-11-09T00:45:09.212Z,12.18
2023-11-09T00:47:37.140Z,12.88
2023-11-09T00:50:06.368Z,11.88
2023-11-09T00:52:34.124Z,10.96
2023-11-09T00:55:02.284Z,10.32
2023-11-09T00:57:33.101Z,10.34
2023-11-09T01:00:00.966Z,11.98
2023-11-09T01:02:35.534Z,12.84
2023-11-09T01:05:03.679Z,11.86
2023-11-09T01:07:31.537Z,10.95
2023-11-09T01:10:00.215Z,10.30
2023-11-09T01:12:28.585Z,10.28
2023-11-09T01:14:56.409Z,11.89
2023-11-09T01:17:24.147Z,12.71
2023-11-09T01:19:52.195Z,11.76
2023-11-09T01:22:21.096Z,10.84
2023-11-09T01:24:48.844Z,10.19
2023-11-09T01:27:16.641Z,9.78
2023-11-09T01:29:44.420Z,10.79
2023-11-09T01:32:12.548Z,12.35
2023-11-09T01:34:40.466Z,12.02
2023-11-09T01:37:12.086Z,10.99
2023-11-09T01:39:41.083Z,10.22
2023-11-09T01:42:11.475Z,9.68
2023-11-09T01:44:39.318Z,9.98
2023-11-09T01:47:08.404Z,11.70
2023-11-09T01:49:37.244Z,12.44
2023-11-09T01:52:06.010Z,11.44
2023-11-09T01:54:35.393Z,10.50
2023-11-09T01:57:04.549Z,9.84
2023-11-09T01:59:33.856Z,9.42
2023-11-09T02:02:02.972Z,10.49
2023-11-09T02:04:30.906Z,12.13
2023-11-09T02:06:59.019Z,11.95
2023-11-09T02:09:28.548Z,10.86
2023-11-09T02:11:56.366Z,10.05
2023-11-09T02:14:24.481Z,9.50
2023-11-09T02:16:52.307Z,9.71
2023-11-09T02:19:20.827Z,11.42
2023-11-09T02:21:53.569Z,12.21
2023-11-09T02:24:21.523Z,11.21
2023-11-09T02:26:49.833Z,10.31
2023-11-09T02:29:21.424Z,9.66
2023-11-09T02:31:49.225Z,9.20
2023-11-09T02:34:21.998Z,9.99
2023-11-09T02:36:50.586Z,11.76
2023-11-09T02:39:18.477Z,12.07
2023-11-09T02:41:46.798Z,10.98
2023-11-09T02:44:14.620Z,10.11
2023-11-09T02:46:42.416Z,9.51
2023-11-09T02:49:10.576Z,9.60
2023-11-09T02:51:38.537Z,11.27
2023-11-09T02:54:06.536Z,12.10
2023-11-09T02:56:34.626Z,11.13
2023-11-09T02:59:03.538Z,10.22
2023-11-09T03:01:32.273Z,9.57
2023-11-09T03:04:00.117Z,9.08
2023-11-09T03:06:28.332Z,9.34
2023-11-09T03:08:56.223Z,11.12
2023-11-09T03:11:24.194Z,11.93
2023-11-09T03:13:52.076Z,10.96
2023-11-09T03:16:22.849Z,10.02
2023-11-09T03:18:50.859Z,9.34
2023-11-09T03:21:18.585Z,9.35
2023-11-09T03:23:48.628Z,10.99
2023-11-09T03:26:16.716Z,11.75
2023-11-09T03:28:44.495Z,10.76
2023-11-09T03:31:13.272Z,9.86
2023-11-09T03:33:41.062Z,9.22
2023-11-09T03:36:08.995Z,8.85
2023-11-09T03:38:36.815Z,9.98
2023-11-09T03:41:04.893Z,11.57
2023-11-09T03:43:32.731Z,11.32
2023-11-09T03:46:01.108Z,10.25
2023-11-09T03:48:29.137Z,9.47
2023-11-09T03:50:56.907Z,8.91
2023-11-09T03:53:24.698Z,9.03
2023-11-09T03:55:52.579Z,10.72
2023-11-09T03:58:20.408Z,11.54
2023-11-09T04:00:49.050Z,10.58
2023-11-09T04:03:16.833Z,9.66
2023-11-09T04:05:44.711Z,9.01
2023-11-09T04:08:12.743Z,9.10
2023-11-09T04:10:41.135Z,10.76
2023-11-09T04:13:09.493Z,11.58
2023-11-09T04:15:37.734Z,10.61
2023-11-09T04:18:05.704Z,9.69
2023-11-09T04:20:33.566Z,9.04
2023-11-09T04:23:01.792Z,9.15
2023-11-09T04:25:30.763Z,10.80
2023-11-09T04:27:58.740Z,11.68
2023-11-09T04:30:29.698Z,10.71
2023-11-09T04:32:59.294Z,9.78
2023-11-09T04:35:27.405Z,9.12
2023-11-09T04:37:55.998Z,9.15
2023-11-09T04:40:26.618Z,10.81
2023-11-09T04:42:58.038Z,11.66
2023-11-09T04:45:27.192Z,10.69
2023-11-09T04:47:59.909Z,9.77
2023-11-09T04:50:32.480Z,9.18
2023-11-09T04:53:20.823Z,10.16
2023-11-09T04:55:55.109Z,11.58
2023-11-09T04:58:41.513Z,10.76
2023-11-09T05:01:27.625Z,9.75
2023-11-09T05:04:13.675Z,9.07
2023-11-09T05:06:50.317Z,9.48
2023-11-09T05:09:21.153Z,11.32
2023-11-09T05:11:49.262Z,11.64
2023-11-09T05:14:18.215Z,10.58
2023-11-09T05:16:46.078Z,9.70
2023-11-09T05:19:14.210Z,9.10
2023-11-09T05:21:42.346Z,9.35
2023-11-09T05:24:10.170Z,11.06
2023-11-09T05:26:38.107Z,11.88
2023-11-09T05:29:06.592Z,10.89
2023-11-09T05:31:38.251Z,9.95
2023-11-09T05:34:06.241Z,9.31
2023-11-09T05:36:35.757Z,10.06
2023-11-09T05:39:07.309Z,11.74
2023-11-09T05:41:36.130Z,11.92
2023-11-09T05:44:04.485Z,10.81
2023-11-09T05:46:32.325Z,9.96
2023-11-09T05:49:00.457Z,9.36
2023-11-09T05:51:29.648Z,9.44
2023-11-09T05:53:58.664Z,11.11
2023-11-09T05:56:29.077Z,11.96
2023-11-09T05:58:57.323Z,11.00
2023-11-09T06:01:26.063Z,10.09
2023-11-09T06:03:55.352Z,9.44
2023-11-09T06:06:23.138Z,9.49
2023-11-09T06:08:51.066Z,11.11
2023-11-09T06:11:18.876Z,11.97
2023-11-09T06:13:46.735Z,11.02
2023-11-09T06:16:15.479Z,10.10
2023-11-09T06:18:44.128Z,9.44
2023-11-09T06:21:11.958Z,9.01
2023-11-09T06:23:39.903Z,9.75
2023-11-09T06:26:07.691Z,11.50
2023-11-09T06:28:35.595Z,11.83
2023-11-09T06:31:05.598Z,10.77
2023-11-09T06:33:34.728Z,9.92
2023-11-09T06:36:02.911Z,9.68
2023-11-09T06:38:31.587Z,11.15
2023-11-09T06:40:59.381Z,12.10
2023-11-09T06:43:27.245Z,11.24
2023-11-09T06:45:57.408Z,10.36
2023-11-09T06:48:26.187Z,9.76
2023-11-09T06:50:55.311Z,10.19
2023-11-09T06:53:23.508Z,11.83
2023-11-09T06:55:52.595Z,11.68
2023-11-09T06:58:20.560Z,10.77
2023-11-09T07:00:48.469Z,10.12
2023-11-09T07:03:19.279Z,10.15
2023-11-09T07:05:47.368Z,11.85
2023-11-09T07:08:15.308Z,12.27
2023-11-09T07:10:45.125Z,11.38
2023-11-09T07:13:13.266Z,10.66
2023-11-09T07:15:41.565Z,10.15
2023-11-09T07:18:11.563Z,9.84
2023-11-09T07:20:39.456Z,10.84
2023-11-09T07:23:10.678Z,12.42
2023-11-09T07:25:38.859Z,12.05
2023-11-09T07:28:08.672Z,11.18
2023-11-09T07:30:36.994Z,10.58
2023-11-09T07:33:06.200Z,10.17
2023-11-09T07:35:35.895Z,10.47
2023-11-09T07:38:03.827Z,12.24
2023-11-09T07:40:31.850Z,12.62
2023-11-09T07:43:00.297Z,11.76
2023-11-09T07:45:28.438Z,11.08
2023-11-09T07:47:56.532Z,10.63
2023-11-09T07:50:25.131Z,10.33
2023-11-09T07:52:54.108Z,11.15
2023-11-09T07:55:22.014Z,12.65
2023-11-09T07:57:52.682Z,12.25
2023-11-09T08:00:21.379Z,11.54
2023-11-09T08:02:49.229Z,11.04
2023-11-09T08:05:17.524Z,10.71
2023-11-09T08:07:45.893Z,10.47
2023-11-09T08:10:14.038Z,10.93
2023-11-09T08:12:42.735Z,12.75
2023-11-09T08:15:15.199Z,13.13
2023-11-09T08:17:44.154Z,12.28
2023-11-09T08:20:16.946Z,11.62
2023-11-09T08:22:47.157Z,11.18
2023-11-09T08:25:17.145Z,10.89
2023-11-09T08:27:46.025Z,10.67
2023-11-09T08:30:17.031Z,10.48
2023-11-09T08:32:48.784Z,10.83
2023-11-09T08:35:17.391Z,12.50
2023-11-09T08:37:45.556Z,12.44
2023-11-09T08:40:28.933Z,11.79
2023-11-09T08:43:00.944Z,11.33
2023-11-09T08:45:30.749Z,11.03
2023-11-09T08:48:00.263Z,10.84
2023-11-09T08:50:28.430Z,10.68
2023-11-09T08:52:56.321Z,11.07
2023-11-09T08:55:24.608Z,12.84
2023-11-09T08:57:53.423Z,12.94
2023-11-09T09:00:24.874Z,12.33
2023-11-09T09:02:53.508Z,11.90
2023-11-09T09:05:25.341Z,11.64
2023-11-09T09:07:58.840Z,11.48
2023-11-09T09:10:29.448Z,11.40
2023-11-09T09:13:03.657Z,11.36
2023-11-09T09:15:31.595Z,11.40
2023-11-09T09:17:59.961Z,11.54
2023-11-09T09:20:29.373Z,11.71
2023-11-09T09:23:00.817Z,11.90
2023-11-09T09:25:28.750Z,12.09
2023-11-09T09:27:56.901Z,12.27
2023-11-09T09:30:26.632Z,12.44
2023-11-09T09:32:56.912Z,12.63
2023-11-09T09:35:26.486Z,12.82
2023-11-09T09:38:04.238Z,12.98
2023-11-09T09:40:40.884Z,13.08
2023-11-09T09:43:16.545Z,13.11
2023-11-09T09:45:48.551Z,13.11
2023-11-09T09:48:17.437Z,13.07
2023-11-09T09:50:47.513Z,13.03
2023-11-09T09:53:21.622Z,13.01
2023-11-09T09:55:50.781Z,13.03
2023-11-09T09:58:21.300Z,13.08
2023-11-09T10:00:56.381Z,13.15
2023-11-09T10:03:26.927Z,13.28
2023-11-09T10:05:55.466Z,13.44
2023-11-09T10:08:25.191Z,13.64
2023-11-09T10:10:55.649Z,13.85
2023-11-09T10:13:26.447Z,14.02
2023-11-09T10:15:59.652Z,14.17
2023-11-09T10:18:29.673Z,14.28
2023-11-09T10:20:59.607Z,14.32
2023-11-09T10:23:27.629Z,14.31
2023-11-09T10:26:00.598Z,14.29
2023-11-09T10:28:33.548Z,14.26
2023-11-09T10:31:02.226Z,14.23
2023-11-09T10:33:31.474Z,14.18
2023-11-09T10:36:02.625Z,14.09
2023-11-09T10:38:37.316Z,14.02
2023-11-09T10:41:16.357Z,13.96
2023-11-09T10:44:02.983Z,13.92
2023-11-09T10:46:34.923Z,13.86
2023-11-09T10:49:05.229Z,13.80
2023-11-09T10:51:35.673Z,13.75
2023-11-09T10:54:04.433Z,13.69
2023-11-09T10:56:32.618Z,13.65
2023-11-09T10:59:01.802Z,13.60
2023-11-09T11:01:31.989Z,13.58
2023-11-09T11:04:01.866Z,13.56
2023-11-09T11:06:35.212Z,13.53
2023-11-09T11:09:09.670Z,13.51
2023-11-09T11:11:39.802Z,13.48
2023-11-09T11:14:14.169Z,13.45
2023-11-09T11:17:03.010Z,13.45
2023-11-09T11:20:03.700Z,13.48
2023-11-09T11:23:04.732Z,13.62
2023-11-09T11:25:40.102Z,13.81
2023-11-09T11:28:12.345Z,14.05
2023-11-09T11:30:41.292Z,14.28
2023-11-09T11:33:20.303Z,14.50
2023-11-09T11:35:53.628Z,14.77
2023-11-09T11:38:23.360Z,15.06
2023-11-09T11:41:13.678Z,15.32
2023-11-09T11:43:43.214Z,15.58
2023-11-09T11:46:18.789Z,15.74
2023-11-09T11:48:52.269Z,15.84
2023-11-09T11:51:28.819Z,15.92
2023-11-09T11:54:11.024Z,15.99
2023-11-09T11:56:39.796Z,16.03
2023-11-09T11:59:12.889Z,16.04
2023-11-09T12:01:41.760Z,16.04
2023-11-09T12:04:15.314Z,16.02
2023-11-09T12:06:45.800Z,16.04
2023-11-09T12:09:16.623Z,16.07
2023-11-09T12:11:51.117Z,16.08
2023-11-09T12:14:21.126Z,16.07
2023-11-09T12:16:50.023Z,16.04
2023-11-09T12:19:19.537Z,16.02
2023-11-09T12:21:48.154Z,16.04
2023-11-09T12:24:24.397Z,16.05
2023-11-09T12:27:08.687Z,16.07
2023-11-09T12:29:39.214Z,16.09
2023-11-09T12:32:08.709Z,16.14
2023-11-09T12:34:42.436Z,16.16
2023-11-09T12:37:16.193Z,16.13
2023-11-09T12:39:45.406Z,16.09
2023-11-09T12:42:20.532Z,16.03
2023-11-09T12:44:48.586Z,15.98
2023-11-09T12:47:19.082Z,15.91
2023-11-09T12:49:55.488Z,15.82
2023-11-09T12:52:27.709Z,15.70
2023-11-09T12:54:57.375Z,15.57
2023-11-09T12:57:26.323Z,15.43
2023-11-09T12:59:57.458Z,15.31
2023-11-09T13:02:43.579Z,15.18
2023-11-09T13:05:14.630Z,15.03
2023-11-09T13:07:47.844Z,14.90
2023-11-09T13:10:24.311Z,14.77
2023-11-09T13:12:56.890Z,14.64
2023-11-09T13:15:38.296Z,14.51
2023-11-09T13:18:09.937Z,14.37
2023-11-09T13:20:38.993Z,14.26
2023-11-09T13:23:12.031Z,14.14
2023-11-09T13:25:53.031Z,14.03
2023-11-09T13:28:24.580Z,13.92
2023-11-09T13:30:54.209Z,13.83
2023-11-09T13:33:35.549Z,13.75
2023-11-09T13:36:17.231Z,13.65
2023-11-09T13:39:11.729Z,13.58
2023-11-09T13:41:43.757Z,13.50
2023-11-09T13:44:13.801Z,13.44
2023-11-09T13:46:44.674Z,13.37
2023-11-09T13:49:29.252Z,13.31
2023-11-09T13:51:58.744Z,13.25
2023-11-09T13:54:40.347Z,13.20
2023-11-09T13:57:12.360Z,13.15
2023-11-09T13:59:45.079Z,13.09
2023-11-09T14:02:35.300Z,13.04
2023-11-09T14:05:11.811Z,12.99
2023-11-09T14:07:44.361Z,12.94
2023-11-09T14:10:16.134Z,12.89
2023-11-09T14:12:45.182Z,12.82
2023-11-09T14:15:26.844Z,12.77
2023-11-09T14:18:04.208Z,12.71
2023-11-09T14:20:33.963Z,12.66
2023-11-09T14:23:07.832Z,12.60
2023-11-09T14:25:40.156Z,12.55
2023-11-09T14:28:09.255Z,12.50
2023-11-09T14:30:39.903Z,12.44
2023-11-09T14:33:09.139Z,12.40
2023-11-09T14:35:43.763Z,12.35
2023-11-09T14:38:13.033Z,12.30
2023-11-09T14:40:48.585Z,12.25
2023-11-09T14:43:18.458Z,12.20
2023-11-09T14:45:47.997Z,12.15
2023-11-09T14:48:18.664Z,12.09
2023-11-09T14:50:47.082Z,12.04
2023-11-09T14:53:30.124Z,11.99
2023-11-09T14:56:02.649Z,11.93
2023-11-09T14:58:35.340Z,11.88
2023-11-09T15:01:05.836Z,11.83
2023-11-09T15:03:36.001Z,11.77
2023-11-09T15:06:13.085Z,11.71
2023-11-09T15:08:41.833Z,11.65
2023-11-09T15:11:15.804Z,11.60
2023-11-09T15:13:48.156Z,11.56
2023-11-09T15:16:20.932Z,11.52
2023-11-09T15:18:50.385Z,11.47
2023-11-09T15:21:22.511Z,11.43
2023-11-09T15:23:50.852Z,11.40
2023-11-09T15:26:19.822Z,11.35
2023-11-09T15:28:49.460Z,11.31
2023-11-09T15:31:18.928Z,11.28
2023-11-09T15:33:46.875Z,11.24
2023-11-09T15:36:14.736Z,11.20
2023-11-09T15:38:43.002Z,11.18
2023-11-09T15:41:19.935Z,11.14
2023-11-09T15:43:55.252Z,11.11
2023-11-09T15:46:24.605Z,11.07
2023-11-09T15:48:54.980Z,11.04
2023-11-09T15:51:35.446Z,11.01
2023-11-09T15:54:03.778Z,10.97
2023-11-09T15:56:32.457Z,10.94
2023-11-09T15:59:01.195Z,11.21
2023-11-09T16:01:29.168Z,13.00
2023-11-09T16:03:57.937Z,13.83
2023-11-09T16:06:25.820Z,13.16
2023-11-09T16:08:53.821Z,12.62
2023-11-09T16:11:22.323Z,12.26
2023-11-09T16:13:51.310Z,12.02
2023-11-09T16:16:19.576Z,11.85
2023-11-09T16:18:48.149Z,11.71
2023-11-09T16:21:16.143Z,11.59
2023-11-09T16:23:46.801Z,11.48
2023-11-09T16:26:16.848Z,11.38
2023-11-09T16:28:49.675Z,11.29
2023-11-09T16:31:18.636Z,11.21
2023-11-09T16:33:47.279Z,11.14
2023-11-09T16:36:17.095Z,11.07
2023-11-09T16:38:49.442Z,11.01
2023-11-09T16:41:23.703Z,10.95
2023-11-09T16:43:51.534Z,10.89
2023-11-09T16:46:19.364Z,10.83
2023-11-09T16:48:47.208Z,10.78
2023-11-09T16:51:15.226Z,11.24
2023-11-09T16:53:45.056Z,13.06
2023-11-09T16:56:13.319Z,13.48
2023-11-09T16:58:41.829Z,12.79
2023-11-09T17:01:10.086Z,12.26
2023-11-09T17:03:38.907Z,11.91
2023-11-09T17:06:07.842Z,11.67
2023-11-09T17:08:38.021Z,11.49
2023-11-09T17:11:09.404Z,11.32
2023-11-09T17:13:39.254Z,11.19
2023-11-09T17:16:07.861Z,11.08
2023-11-09T17:18:35.918Z,10.96
2023-11-09T17:21:05.720Z,10.86
2023-11-09T17:23:33.686Z,10.76
2023-11-09T17:26:01.550Z,10.94
2023-11-09T17:28:32.410Z,12.63
2023-11-09T17:31:00.438Z,13.70
2023-11-09T17:33:28.341Z,13.00
2023-11-09T17:35:57.064Z,12.33
2023-11-09T17:38:26.859Z,11.89
2023-11-09T17:40:54.859Z,11.59
2023-11-09T17:43:22.953Z,11.38
2023-11-09T17:45:51.375Z,11.19
2023-11-09T17:48:20.257Z,11.05
2023-11-09T17:50:48.141Z,10.93
2023-11-09T17:53:20.649Z,10.81
2023-11-09T17:55:48.698Z,10.70
2023-11-09T17:58:17.857Z,10.62
2023-11-09T18:00:46.189Z,10.53
2023-11-09T18:03:16.667Z,10.47
2023-11-09T18:05:46.972Z,10.42
2023-11-09T18:08:16.893Z,10.37
2023-11-09T18:10:44.878Z,10.33
2023-11-09T18:13:13.026Z,10.29
2023-11-09T18:15:42.518Z,10.26
2023-11-09T18:18:11.630Z,10.24
2023-11-09T18:20:43.414Z,10.22
2023-11-09T18:23:11.380Z,10.20
2023-11-09T18:25:39.413Z,10.20
2023-11-09T18:28:08.362Z,10.19
2023-11-09T18:30:36.625Z,10.19
2023-11-09T18:33:05.702Z,10.18
2023-11-09T18:35:33.837Z,10.19
2023-11-09T18:38:01.810Z,10.19
2023-11-09T18:40:29.786Z,10.20
2023-11-09T18:42:57.938Z,10.21
2023-11-09T18:45:25.995Z,10.20
2023-11-09T18:47:54.130Z,10.21
2023-11-09T18:52:53.801Z,10.21
2023-11-09T18:55:21.725Z,10.22
2023-11-09T18:57:49.835Z,10.22
2023-11-09T19:00:18.236Z,10.20
2023-11-09T19:05:16.978Z,10.20
2023-11-09T19:07:45.038Z,10.18
2023-11-09T19:10:13.090Z,10.17
2023-11-09T19:12:41.046Z,10.18
2023-11-09T19:15:11.902Z,10.17
2023-11-09T19:17:41.025Z,10.16
2023-11-09T19:20:10.722Z,10.16
2023-11-09T19:22:41.915Z,10.16
2023-11-09T19:25:11.172Z,10.15
2023-11-09T19:27:39.423Z,10.15
2023-11-09T19:30:10.930Z,10.16
2023-11-09T19:32:38.968Z,10.15
2023-11-09T19:35:07.243Z,10.14
2023-11-09T19:37:35.182Z,10.13
2023-11-09T19:40:03.821Z,10.11
2023-11-09T19:42:32.493Z,10.10
2023-11-09T19:45:00.886Z,10.10
2023-11-09T19:47:29.284Z,10.08
2023-11-09T19:49:57.401Z,10.07
2023-11-09T19:52:25.464Z,10.08
2023-11-09T19:54:53.378Z,10.08
2023-11-09T19:57:21.336Z,10.12
2023-11-09T19:59:49.263Z,11.38
2023-11-09T20:02:18.721Z,12.71
2023-11-09T20:04:47.036Z,12.25
2023-11-09T20:07:15.766Z,11.72
2023-11-09T20:09:43.726Z,11.39
2023-11-09T20:12:11.639Z,11.18
2023-11-09T20:14:40.502Z,11.04
2023-11-09T20:17:08.585Z,10.93
2023-11-09T20:19:36.454Z,10.83
2023-11-09T20:22:05.706Z,10.75
2023-11-09T20:24:33.772Z,10.69
2023-11-09T20:27:02.506Z,10.63
2023-11-09T20:29:30.891Z,10.58
2023-11-09T20:31:59.708Z,10.53
2023-11-09T20:34:28.882Z,10.50
2023-11-09T20:36:56.766Z,10.47
2023-11-09T20:39:24.792Z,10.43
2023-11-09T20:41:52.692Z,10.41
2023-11-09T20:44:21.031Z,10.37
2023-11-09T20:46:49.265Z,10.34
2023-11-09T20:49:17.043Z,10.32
2023-11-09T20:51:45.115Z,10.30
2023-11-09T20:54:13.058Z,10.28
2023-11-09T20:56:41.033Z,10.26
2023-11-09T20:59:10.704Z,10.24
2023-11-09T21:01:38.615Z,10.22
2023-11-09T21:04:08.081Z,10.43
2023-11-09T21:06:38.540Z,12.14
2023-11-09T21:09:06.524Z,12.72
2023-11-09T21:11:34.827Z,12.12
2023-11-09T21:14:02.673Z,11.66
2023-11-09T21:16:30.523Z,11.39
2023-11-09T21:19:01.659Z,11.20
2023-11-09T21:21:29.626Z,11.06
2023-11-09T21:23:58.618Z,10.96
2023-11-09T21:26:27.560Z,10.87
2023-11-09T21:28:55.605Z,10.78
2023-11-09T21:31:23.359Z,10.70
2023-11-09T21:33:54.622Z,10.64
2023-11-09T21:36:23.571Z,10.57
2023-11-09T21:38:51.379Z,10.51
2023-11-09T21:41:19.332Z,10.46
2023-11-09T21:43:48.167Z,10.41
2023-11-09T21:46:15.996Z,11.19
2023-11-09T21:48:44.090Z,12.80
2023-11-09T21:51:12.028Z,12.57
2023-11-09T21:53:39.897Z,12.00
2023-11-09T21:56:10.136Z,11.64
2023-11-09T21:58:38.020Z,11.39
2023-11-09T22:01:05.923Z,11.22
2023-11-09T22:03:35.204Z,11.09
2023-11-09T22:06:04.253Z,10.99
2023-11-09T22:08:32.207Z,10.90
2023-11-09T22:11:00.839Z,10.84
2023-11-09T22:13:28.868Z,10.77
2023-11-09T22:15:56.718Z,10.71
2023-11-09T22:18:24.611Z,11.13
2023-11-09T22:20:52.425Z,12.99
2023-11-09T22:23:20.374Z,14.05
2023-11-09T22:25:48.145Z,13.36
2023-11-09T22:28:16.021Z,12.67
2023-11-09T22:30:43.820Z,12.24
2023-11-09T22:33:12.984Z,11.95
2023-11-09T22:35:42.651Z,11.76
2023-11-09T22:38:10.661Z,11.60
2023-11-09T22:40:39.355Z,11.48
2023-11-09T22:43:07.994Z,11.36
2023-11-09T22:45:36.449Z,11.27
2023-11-09T22:48:04.666Z,11.18
2023-11-09T22:50:34.487Z,11.10
2023-11-09T22:53:02.300Z,11.63
2023-11-09T22:55:30.159Z,13.43
2023-11-09T22:57:57.944Z,13.49
2023-11-09T23:00:36.196Z,12.83
2023-11-09T23:03:05.548Z,12.32
2023-11-09T23:05:33.717Z,12.03
2023-11-09T23:08:01.558Z,11.82
2023-11-09T23:10:29.652Z,11.66
2023-11-09T23:12:57.444Z,11.52
2023-11-09T23:15:25.562Z,11.41
2023-11-09T23:17:53.424Z,11.31
2023-11-09T23:20:21.259Z,11.23
2023-11-09T23:22:49.088Z,11.15
2023-11-09T23:25:16.938Z,11.87
2023-11-09T23:27:44.860Z,13.75
2023-11-09T23:30:18.085Z,14.15
2023-11-09T23:32:46.359Z,13.36
2023-11-09T23:35:17.562Z,12.76
2023-11-09T23:37:47.936Z,12.37
2023-11-09T23:40:16.772Z,12.11
2023-11-09T23:42:46.321Z,11.90
2023-11-09T23:45:14.527Z,11.75
2023-11-09T23:47:42.539Z,11.60
2023-11-09T23:50:13.112Z,11.48
2023-11-09T23:52:41.555Z,12.14
2023-11-09T23:55:10.137Z,13.91
2023-11-09T23:57:37.984Z,13.98
